Time;durP1;ratioP1;P1;durP2;ratioP2;P2;SDS_P1;SDS_P2;PMS_P1;PMS_P2;Temp;Humidity;BMP_temperature;BMP_pressure;BME280_temperature;BME280_humidity;BME280_pressure;Samples;Min_cycle;Max_cycle;Signal;HPM_P1;HPM_P2
2022/06/02 00:01:21;;;;;;;3.80;3.40;;;;;;;11.30;100.00;96436.38;5069709;28;20520;-75
2022/06/02 00:04:06;;;;;;;3.10;2.80;;;;;;;11.03;100.00;96446.44;5069689;28;20565;-75
2022/06/02 00:07:03;;;;;;;2.80;2.53;;;;;;;11.16;100.00;96453.31;5083057;28;20427;-75
2022/06/02 00:09:51;;;;;;;3.23;2.93;;;;;;;10.95;100.00;96448.09;5068635;28;20472;-74
2022/06/02 00:12:25;;;;;;;2.70;2.50;;;;;;;10.91;100.00;96449.81;5073153;28;20504;-75
2022/06/02 00:14:58;;;;;;;2.93;2.73;;;;;;;10.86;100.00;96430.72;5073203;28;21027;-75
2022/06/02 00:17:58;;;;;;;3.00;2.80;;;;;;;10.91;100.00;96454.31;5086437;28;20441;-75
2022/06/02 00:21:10;;;;;;;3.07;2.63;;;;;;;10.90;100.00;96461.50;5093902;28;20484;-75
2022/06/02 00:23:58;;;;;;;3.63;3.33;;;;;;;10.69;100.00;96468.69;5056165;28;20465;-75
2022/06/02 00:26:34;;;;;;;5.27;2.97;;;;;;;10.52;100.00;96434.41;5087721;28;20800;-75
2022/06/02 00:29:16;;;;;;;3.50;2.83;;;;;;;10.74;100.00;96473.00;5090029;28;20475;-75
2022/06/02 00:32:06;;;;;;;4.47;3.67;;;;;;;10.76;100.00;96476.84;5083764;28;20550;-75
2022/06/02 00:35:10;;;;;;;3.30;3.10;;;;;;;10.80;100.00;96475.09;5068692;28;20496;-75
2022/06/02 00:38:01;;;;;;;6.73;3.67;;;;;;;10.73;100.00;96484.66;5029702;28;20432;-75
2022/06/02 00:40:31;;;;;;;3.20;3.00;;;;;;;10.54;100.00;96467.38;5084776;28;20431;-74
2022/06/02 00:43:13;;;;;;;6.93;3.37;;;;;;;10.60;100.00;96481.19;5095474;28;20452;-75
2022/06/02 00:45:42;;;;;;;7.07;4.07;;;;;;;10.67;100.00;96492.00;5104393;28;20492;-75
2022/06/02 00:48:37;;;;;;;7.20;4.37;;;;;;;10.78;100.00;96487.88;5096147;28;20425;-75
2022/06/02 00:51:07;;;;;;;5.80;4.63;;;;;;;10.62;100.00;96494.84;5033514;28;20490;-75
2022/06/02 00:53:33;;;;;;;8.93;4.33;;;;;;;10.60;100.00;96499.69;5027536;28;20570;-75
2022/06/02 00:59:43;;;;;;;5.37;4.87;;;;;;;10.87;100.00;96512.41;5054818;28;20441;-75
2022/06/02 01:02:10;;;;;;;5.70;5.20;;;;;;;10.69;100.00;96500.41;5043854;28;20451;-74
2022/06/02 01:04:42;;;;;;;4.20;3.80;;;;;;;10.68;100.00;96520.00;5027958;28;20426;-75
2022/06/02 01:07:33;;;;;;;5.20;4.70;;;;;;;10.59;100.00;96525.34;5051365;28;20424;-75
2022/06/02 01:10:18;;;;;;;4.87;4.17;;;;;;;10.55;100.00;96524.47;5028462;28;20488;-74
2022/06/02 01:13:16;;;;;;;4.70;4.40;;;;;;;10.62;100.00;96522.06;5031212;28;20506;-74
2022/06/02 01:16:13;;;;;;;5.07;4.67;;;;;;;10.48;100.00;96526.81;5042722;28;20540;-75
2022/06/02 01:18:59;;;;;;;5.60;4.60;;;;;;;10.62;100.00;96514.13;5039285;28;20853;-75
2022/06/02 01:21:51;;;;;;;6.40;5.60;;;;;;;10.14;100.00;96485.44;5016860;28;20537;-75
2022/06/02 01:24:55;;;;;;;5.80;5.40;;;;;;;10.50;100.00;96532.56;5044810;28;20908;-75
2022/06/02 01:27:31;;;;;;;5.77;5.27;;;;;;;10.23;100.00;96517.16;5018753;28;20528;-75
2022/06/02 01:30:14;;;;;;;6.57;5.57;;;;;;;10.49;100.00;96523.09;5072026;28;20539;-75
2022/06/02 01:32:53;;;;;;;5.80;5.30;;;;;;;10.20;100.00;96521.19;5071819;28;20571;-75
2022/06/02 01:35:29;;;;;;;10.30;6.27;;;;;;;10.19;100.00;96519.63;5073264;28;20531;-75
2022/06/02 01:38:14;;;;;;;6.90;6.30;;;;;;;10.18;100.00;96523.38;5072560;28;20752;-75
2022/06/02 01:41:00;;;;;;;6.23;5.67;;;;;;;10.33;100.00;96527.38;5075738;28;20505;-75
2022/06/02 01:43:44;;;;;;;5.93;5.33;;;;;;;10.36;100.00;96510.88;5075042;28;20452;-75
2022/06/02 01:46:23;;;;;;;5.90;5.50;;;;;;;10.23;100.00;96515.28;5059935;28;20473;-74
2022/06/02 01:49:17;;;;;;;6.10;5.60;;;;;;;10.50;100.00;96523.84;5071598;28;20444;-75
2022/06/02 01:51:51;;;;;;;6.70;6.17;;;;;;;10.61;100.00;96520.50;5071219;28;20463;-75
2022/06/02 01:54:50;;;;;;;6.30;5.77;;;;;;;10.56;100.00;96527.88;5062720;28;20507;-75
2022/06/02 01:57:31;;;;;;;6.80;5.20;;;;;;;10.54;100.00;96524.75;5091676;28;20893;-75
2022/06/02 02:00:08;;;;;;;6.70;6.10;;;;;;;10.49;100.00;96524.94;5074727;28;20523;-75
2022/06/02 02:02:52;;;;;;;7.07;5.80;;;;;;;10.65;100.00;96523.28;5083230;28;20431;-75
2022/06/02 02:05:22;;;;;;;6.73;5.63;;;;;;;10.75;100.00;96520.28;5071033;28;20440;-75
2022/06/02 02:07:49;;;;;;;8.07;6.37;;;;;;;10.77;100.00;96530.53;5085011;28;21237;-75
2022/06/02 02:10:45;;;;;;;9.27;6.20;;;;;;;10.89;100.00;96535.88;5091054;28;20471;-75
2022/06/02 02:13:28;;;;;;;7.40;6.70;;;;;;;10.76;100.00;96531.63;5070887;28;20484;-75
2022/06/02 02:16:02;;;;;;;5.20;4.47;;;;;;;10.71;100.00;96535.25;5087972;28;20456;-75
2022/06/02 02:18:41;;;;;;;7.00;5.17;;;;;;;10.63;100.00;96533.41;5070819;28;20432;-75
2022/06/02 02:21:23;;;;;;;6.87;4.77;;;;;;;9.97;100.00;96533.88;5070781;28;20473;-75
2022/06/02 02:24:05;;;;;;;5.97;5.47;;;;;;;9.98;100.00;96508.22;5081348;28;20455;-74
2022/06/02 02:26:41;;;;;;;4.80;4.40;;;;;;;10.10;100.00;96516.25;5090959;28;20425;-75
2022/06/02 02:29:30;;;;;;;5.03;4.63;;;;;;;10.33;100.00;96540.59;5090792;28;20435;-75
2022/06/02 02:32:23;;;;;;;5.60;5.10;;;;;;;10.01;100.00;96529.50;5073270;28;20499;-75
2022/06/02 02:35:14;;;;;;;5.30;4.90;;;;;;;9.97;100.00;96531.22;5091292;28;20478;-75
2022/06/02 02:37:50;;;;;;;6.50;4.73;;;;;;;9.87;100.00;96533.44;5090787;28;20833;-75
2022/06/02 02:40:38;;;;;;;4.80;4.30;;;;;;;9.81;100.00;96530.19;5092294;28;20453;-74
2022/06/02 02:43:34;;;;;;;5.03;4.57;;;;;;;10.05;100.00;96535.72;5076315;28;20533;-74
2022/06/02 02:46:17;;;;;;;3.97;3.67;;;;;;;9.74;100.00;96506.13;5070334;28;20949;-73
2022/06/02 02:48:57;;;;;;;4.50;3.77;;;;;;;9.95;100.00;96522.84;5087205;28;20953;-73
2022/06/02 02:52:00;;;;;;;4.50;4.10;;;;;;;10.01;100.00;96547.97;5070057;28;20530;-73
2022/06/02 02:54:43;;;;;;;3.47;3.17;;;;;;;9.95;100.00;96530.78;5071804;28;20451;-74
2022/06/02 02:57:19;;;;;;;4.40;4.10;;;;;;;9.67;100.00;96543.59;5070251;28;20440;-73
2022/06/02 02:59:58;;;;;;;4.20;3.67;;;;;;;9.68;100.00;96547.78;5070429;28;20451;-73
2022/06/02 03:03:00;;;;;;;3.30;3.10;;;;;;;9.57;100.00;96532.59;5070250;28;21010;-73
2022/06/02 03:05:43;;;;;;;4.23;3.90;;;;;;;9.35;100.00;96541.50;5060171;28;20440;-74
2022/06/02 03:08:18;;;;;;;3.97;3.57;;;;;;;9.01;100.00;96552.81;5070581;28;20428;-73
2022/06/02 03:10:50;;;;;;;6.07;4.57;;;;;;;8.95;100.00;96556.69;5080886;28;20431;-73
2022/06/02 03:14:10;;;;;;;4.50;4.10;;;;;;;9.19;100.00;96563.03;5091440;28;20491;-74
2022/06/02 03:16:39;;;;;;;4.53;4.23;;;;;;;9.03;100.00;96559.31;5047597;28;20977;-74
2022/06/02 03:19:11;;;;;;;5.50;5.00;;;;;;;9.25;100.00;96566.31;5086876;28;20841;-74
2022/06/02 03:22:06;;;;;;;5.00;4.60;;;;;;;9.38;100.00;96564.59;5070060;28;21011;-74
2022/06/02 03:24:52;;;;;;;6.20;5.10;;;;;;;9.19;100.00;96534.03;5064084;28;20490;-73
2022/06/02 03:27:35;;;;;;;7.77;6.23;;;;;;;9.32;100.00;96582.44;5070030;28;20450;-74
2022/06/02 03:30:02;;;;;;;5.67;4.93;;;;;;;9.08;100.00;96582.13;5060080;28;20482;-74
2022/06/02 03:32:59;;;;;;;5.37;4.87;;;;;;;9.02;100.00;96580.75;5073016;28;20552;-74
2022/06/02 03:35:50;;;;;;;5.30;4.80;;;;;;;9.13;100.00;96587.25;5090221;28;20796;-74
2022/06/02 03:38:46;;;;;;;6.30;5.60;;;;;;;9.15;100.00;96575.31;5091309;28;20466;-74
2022/06/02 03:41:31;;;;;;;6.23;5.63;;;;;;;8.94;100.00;96586.75;5065400;28;20443;-74
2022/06/02 03:44:26;;;;;;;4.63;4.30;;;;;;;8.88;100.00;96583.53;5088380;28;20499;-74
2022/06/02 03:47:03;;;;;;;5.30;4.80;;;;;;;8.81;100.00;96583.97;5073692;28;20444;-74
2022/06/02 03:49:32;;;;;;;4.83;4.43;;;;;;;9.17;100.00;96593.47;5073711;28;20482;-74
2022/06/02 03:52:35;;;;;;;4.40;4.10;;;;;;;9.21;100.00;96590.97;5073290;28;20464;-74
2022/06/02 03:55:24;;;;;;;4.70;4.27;;;;;;;8.93;100.00;96586.00;5073423;28;20876;-74
2022/06/02 03:58:03;;;;;;;4.57;4.27;;;;;;;8.89;100.00;96606.16;5067777;28;20527;-74
2022/06/02 04:00:47;;;;;;;6.40;5.27;;;;;;;8.95;100.00;96596.22;5088468;28;20467;-74
2022/06/02 04:03:41;;;;;;;5.00;4.60;;;;;;;8.86;100.00;96585.69;5090268;28;20487;-74
2022/06/02 04:06:37;;;;;;;5.33;4.83;;;;;;;9.24;100.00;96616.75;5075732;28;20807;-74
2022/06/02 04:09:03;;;;;;;6.13;4.57;;;;;;;9.17;100.00;96619.84;5073276;28;20619;-74
2022/06/02 04:15:06;;;;;;;6.70;4.53;;;;;;;9.41;100.00;96624.66;5086940;28;20466;-74
2022/06/02 04:17:47;;;;;;;5.33;4.93;;;;;;;9.43;100.00;96627.78;5079533;28;20443;-74
2022/06/02 04:20:44;;;;;;;6.03;4.47;;;;;;;9.71;100.00;96626.34;5076779;28;20478;-74
2022/06/02 04:23:36;;;;;;;5.40;4.97;;;;;;;9.72;100.00;96632.41;5093129;28;20467;-75
2022/06/02 04:26:29;;;;;;;5.60;5.10;;;;;;;9.79;100.00;96632.72;5077936;28;21143;-75
2022/06/02 04:29:44;;;;;;;5.17;4.77;;;;;;;9.79;100.00;96638.00;5073194;28;20527;-75
2022/06/02 04:32:27;;;;;;;4.53;4.23;;;;;;;9.98;100.00;96617.28;5035961;28;20482;-75
2022/06/02 04:35:19;;;;;;;4.47;3.73;;;;;;;10.13;100.00;96644.28;5073097;28;20802;-76
2022/06/02 04:37:53;;;;;;;4.77;4.23;;;;;;;10.25;100.00;96626.72;5061261;28;20458;-76
2022/06/02 04:40:22;;;;;;;5.00;4.70;;;;;;;9.87;100.00;96641.72;5076237;28;20440;-76
2022/06/02 04:43:17;;;;;;;4.23;3.93;;;;;;;10.01;100.00;96624.59;5093108;28;20440;-75
2022/06/02 04:46:02;;;;;;;4.77;4.43;;;;;;;10.00;100.00;96617.75;5081673;28;20484;-74
2022/06/02 04:48:40;;;;;;;4.40;4.10;;;;;;;10.40;100.00;96646.56;5060133;28;20861;-74
2022/06/02 04:51:10;;;;;;;5.13;4.73;;;;;;;10.85;100.00;96652.16;5079045;28;20489;-74
2022/06/02 04:54:19;;;;;;;4.37;4.13;;;;;;;10.70;100.00;96652.69;5075130;28;20500;-76
2022/06/02 04:56:53;;;;;;;5.00;4.50;;;;;;;10.65;100.00;96645.69;5048902;28;20441;-75
2022/06/02 04:59:25;;;;;;;5.90;5.30;;;;;;;10.26;100.00;96615.06;5076561;28;20417;-76
2022/06/02 05:02:31;;;;;;;5.70;5.30;;;;;;;10.22;100.00;96656.44;5073868;28;20457;-76
2022/06/02 05:05:13;;;;;;;5.53;5.13;;;;;;;10.16;100.00;96656.91;5074817;28;20516;-78
2022/06/02 05:08:17;;;;;;;6.10;5.60;;;;;;;10.18;100.00;96658.13;5086900;28;20448;-78
2022/06/02 05:11:08;;;;;;;5.23;4.80;;;;;;;10.15;100.00;96639.47;5093784;28;20471;-78
2022/06/02 05:13:46;;;;;;;5.80;5.00;;;;;;;10.27;100.00;96631.69;5061484;28;20547;-78
2022/06/02 05:16:27;;;;;;;6.10;5.37;;;;;;;10.23;100.00;96636.06;5056836;28;20436;-78
2022/06/02 05:19:04;;;;;;;4.97;4.57;;;;;;;10.86;100.00;96648.41;5073918;28;20558;-79
2022/06/02 05:21:31;;;;;;;4.43;4.10;;;;;;;11.25;100.00;96671.06;5073487;28;20432;-78
2022/06/02 05:24:25;;;;;;;5.00;4.60;;;;;;;10.94;100.00;96641.50;5072504;28;20457;-78
2022/06/02 05:27:10;;;;;;;5.20;4.73;;;;;;;11.17;100.00;96669.22;5084960;28;20448;-78
2022/06/02 05:29:51;;;;;;;8.70;5.27;;;;;;;11.00;100.00;96671.22;5073071;28;20827;-78
2022/06/02 05:32:46;;;;;;;4.80;4.40;;;;;;;11.50;100.00;96677.28;5073429;28;20583;-78
2022/06/02 05:35:18;;;;;;;4.43;4.03;;;;;;;11.35;100.00;96671.75;5089883;28;20460;-78
2022/06/02 05:38:00;;;;;;;3.90;3.60;;;;;;;11.46;100.00;96671.06;5089582;28;20440;-78
2022/06/02 05:40:38;;;;;;;4.60;4.30;;;;;;;11.67;100.00;96672.94;5074123;28;20436;-77
2022/06/02 05:43:25;;;;;;;3.73;3.53;;;;;;;11.34;100.00;96652.44;5083849;28;20466;-77
2022/06/02 05:46:29;;;;;;;5.53;5.00;;;;;;;11.49;100.00;96673.06;5074723;28;20436;-77
2022/06/02 05:49:11;;;;;;;4.70;4.30;;;;;;;11.83;100.00;96680.00;5057827;28;20531;-77
2022/06/02 05:51:59;;;;;;;4.40;3.97;;;;;;;12.01;100.00;96680.59;5075792;28;20495;-77
2022/06/02 05:54:45;;;;;;;4.23;3.93;;;;;;;12.36;100.00;96686.34;5066489;28;20428;-77
2022/06/02 05:57:20;;;;;;;4.30;3.90;;;;;;;12.80;100.00;96676.00;5076252;28;20429;-77
2022/06/02 06:00:25;;;;;;;3.93;3.63;;;;;;;13.03;100.00;96681.66;5076080;28;20420;-77
2022/06/02 06:03:20;;;;;;;3.13;2.93;;;;;;;13.05;100.00;96681.31;5074828;28;20456;-77
2022/06/02 06:06:02;;;;;;;4.30;3.87;;;;;;;13.38;100.00;96686.50;5047333;28;20435;-77
2022/06/02 06:08:37;;;;;;;3.87;3.17;;;;;;;13.75;100.00;96693.25;5073537;28;20494;-77
2022/06/02 06:11:38;;;;;;;3.80;3.50;;;;;;;13.75;100.00;96706.56;5073647;28;20949;-77
2022/06/02 06:14:24;;;;;;;3.13;2.83;;;;;;;13.73;100.00;96702.69;5073867;28;20471;-77
2022/06/02 06:17:18;;;;;;;3.20;3.00;;;;;;;13.52;100.00;96660.38;5071189;28;20415;-77
2022/06/02 06:20:01;;;;;;;3.67;3.37;;;;;;;13.50;100.00;96652.72;5082184;28;20558;-77
2022/06/02 06:22:31;;;;;;;5.33;3.27;;;;;;;14.00;100.00;96703.81;5081319;28;20980;-76
2022/06/02 06:25:10;;;;;;;2.83;2.63;;;;;;;14.23;100.00;96706.72;5066859;28;20789;-77
2022/06/02 06:27:40;;;;;;;3.60;3.20;;;;;;;14.08;100.00;96708.22;5077395;28;20452;-77
2022/06/02 06:30:33;;;;;;;3.20;2.90;;;;;;;14.46;100.00;96713.06;5062159;28;20432;-77
2022/06/02 06:33:06;;;;;;;2.70;2.50;;;;;;;14.73;97.66;96720.22;5071562;28;20831;-77
2022/06/02 06:35:36;;;;;;;4.83;3.03;;;;;;;14.19;100.00;96714.63;5096846;28;20518;-77
2022/06/02 06:38:45;;;;;;;3.50;3.20;;;;;;;14.99;95.27;96702.94;5086832;28;20447;-77
2022/06/02 06:41:27;;;;;;;2.77;2.60;;;;;;;15.61;95.57;96727.94;5084590;28;20420;-77
2022/06/02 06:44:09;;;;;;;2.57;2.40;;;;;;;15.55;87.46;96729.31;5102594;28;20473;-77
2022/06/02 06:46:54;;;;;;;2.87;2.57;;;;;;;15.26;85.88;96734.03;5094632;28;20428;-77
2022/06/02 06:49:40;;;;;;;3.50;3.20;;;;;;;15.72;85.60;96725.50;5091250;28;20441;-77
2022/06/02 06:52:33;;;;;;;2.80;2.60;;;;;;;16.02;85.80;96731.84;5090560;28;20461;-77
2022/06/02 06:55:28;;;;;;;3.27;3.07;;;;;;;15.55;85.83;96730.09;5076113;28;20497;-77
2022/06/02 06:58:07;;;;;;;3.30;2.57;;;;;;;15.76;83.67;96737.81;5072415;28;20498;-77
2022/06/02 07:00:48;;;;;;;2.83;2.57;;;;;;;15.58;82.77;96729.38;5073793;28;20480;-77
2022/06/02 07:03:49;;;;;;;3.00;2.70;;;;;;;15.48;79.93;96740.59;5071673;28;20484;-77
2022/06/02 07:06:37;;;;;;;3.37;2.20;;;;;;;16.11;74.50;96748.41;5071548;28;20451;-77
2022/06/02 07:09:06;;;;;;;2.17;2.00;;;;;;;16.07;73.01;96746.81;5071889;28;20452;-77
2022/06/02 07:14:40;;;;;;;2.37;1.50;;;;;;;15.33;69.81;96710.19;5086670;28;20498;-77
2022/06/02 07:17:19;;;;;;;4.03;2.00;;;;;;;15.52;64.01;96716.69;5071197;28;20822;-77
2022/06/02 07:19:55;;;;;;;4.43;1.50;;;;;;;16.36;63.26;96759.56;5075067;28;20489;-77
2022/06/02 07:22:36;;;;;;;2.00;1.60;;;;;;;15.98;65.73;96748.91;5074710;28;20491;-78
2022/06/02 07:25:21;;;;;;;1.90;1.80;;;;;;;16.95;61.03;96755.69;5084716;28;20456;-77
2022/06/02 07:28:08;;;;;;;2.33;2.13;;;;;;;17.31;63.99;96765.03;5072314;28;20524;-77
2022/06/02 07:31:04;;;;;;;3.20;2.03;;;;;;;16.99;61.49;96755.75;5084613;28;20459;-77
2022/06/02 07:34:00;;;;;;;2.50;1.70;;;;;;;16.01;57.65;96756.19;5073939;28;20503;-77
2022/06/02 07:36:39;;;;;;;5.23;1.90;;;;;;;16.97;57.54;96752.66;5055233;28;20448;-77
2022/06/02 07:39:43;;;;;;;1.73;1.50;;;;;;;17.27;58.12;96740.16;5053813;28;20889;-77
2022/06/02 07:42:33;;;;;;;1.90;1.80;;;;;;;17.30;55.44;96749.34;5072702;28;20980;-77
2022/06/02 07:45:24;;;;;;;2.90;2.00;;;;;;;17.47;58.27;96756.88;5080270;28;20459;-77
2022/06/02 07:48:17;;;;;;;1.70;1.60;;;;;;;18.41;55.56;96762.28;5071070;28;21000;-77
2022/06/02 07:50:56;;;;;;;2.03;1.93;;;;;;;18.24;54.09;96731.50;5083888;28;20549;-78
2022/06/02 07:53:53;;;;;;;3.07;1.77;;;;;;;17.16;59.29;96679.66;5070406;28;20995;-78
2022/06/02 07:56:38;;;;;;;2.70;2.10;;;;;;;17.09;61.56;96757.81;5068738;28;20482;-77
2022/06/02 07:59:10;;;;;;;2.30;2.10;;;;;;;16.95;60.50;96762.91;5067128;28;20966;-77
2022/06/02 08:02:10;;;;;;;3.63;2.10;;;;;;;17.26;62.54;96751.97;5084128;28;20515;-77
2022/06/02 08:04:47;;;;;;;1.70;1.60;;;;;;;18.05;60.80;96756.53;5038958;28;21023;-77
2022/06/02 08:07:34;;;;;;;2.13;1.93;;;;;;;17.89;59.33;96726.50;5058512;28;20523;-77
2022/06/02 08:10:11;;;;;;;3.70;2.70;;;;;;;17.01;59.98;96758.84;5071550;28;20456;-77
2022/06/02 08:13:02;;;;;;;2.30;2.10;;;;;;;16.89;60.79;96756.34;5069931;28;20522;-77
2022/06/02 08:15:40;;;;;;;2.20;2.10;;;;;;;17.72;61.00;96750.00;5070273;28;20425;-77
2022/06/02 08:18:26;;;;;;;2.50;2.30;;;;;;;18.13;61.62;96747.44;5088065;28;20506;-77
2022/06/02 08:20:59;;;;;;;2.20;2.07;;;;;;;18.48;59.57;96714.16;5077231;28;20409;-77
2022/06/02 08:23:47;;;;;;;2.40;1.73;;;;;;;19.21;58.20;96758.09;5058193;28;20520;-77
2022/06/02 08:26:39;;;;;;;1.90;1.73;;;;;;;19.44;56.73;96729.13;5070331;28;20543;-78
2022/06/02 08:29:13;;;;;;;2.30;1.40;;;;;;;18.68;54.16;96728.91;5065871;28;20504;-78
2022/06/02 08:32:03;;;;;;;7.70;1.80;;;;;;;17.85;56.39;96760.47;5066582;28;20443;-78
2022/06/02 08:34:56;;;;;;;2.47;2.27;;;;;;;18.61;55.97;96734.19;5085298;28;20459;-78
2022/06/02 08:37:44;;;;;;;2.43;1.90;;;;;;;18.38;55.86;96761.13;5085843;28;20417;-78
2022/06/02 08:40:50;;;;;;;5.00;2.30;;;;;;;17.99;57.08;96760.66;5076267;28;20505;-78
2022/06/02 08:43:24;;;;;;;1.70;1.40;;;;;;;19.07;54.15;96753.38;5074036;28;20452;-78
2022/06/02 08:46:10;;;;;;;2.10;1.47;;;;;;;18.75;54.57;96760.38;5053727;28;20432;-77
2022/06/02 08:49:18;;;;;;;1.77;1.67;;;;;;;18.31;55.48;96751.13;5088000;28;20447;-77
2022/06/02 08:52:09;;;;;;;3.00;1.70;;;;;;;18.18;55.47;96770.47;5059177;28;20459;-78
2022/06/02 08:55:10;;;;;;;1.47;1.37;;;;;;;18.67;54.62;96769.47;5083700;28;20514;-78
2022/06/02 08:58:35;;;;;;;2.23;2.03;;;;;;;18.72;55.53;96759.22;5062303;28;20955;-78
2022/06/02 09:01:27;;;;;;;2.27;1.77;;;;;;;19.37;53.96;96774.69;5050103;28;20529;-77
2022/06/02 09:04:06;;;;;;;3.17;1.40;;;;;;;20.00;54.39;96781.63;5061317;28;20833;-77
2022/06/02 09:06:50;;;;;;;2.73;1.40;;;;;;;19.60;52.85;96757.63;5072720;28;20464;-77
2022/06/02 09:09:56;;;;;;;1.63;1.40;;;;;;;19.86;50.80;96768.13;5085115;28;20847;-78
2022/06/02 09:12:26;;;;;;;4.00;1.40;;;;;;;19.13;50.29;96797.50;5071869;28;20570;-78
2022/06/02 09:14:59;;;;;;;2.60;1.50;;;;;;;19.21;50.60;96790.25;5089527;28;20539;-78
2022/06/02 09:17:45;;;;;;;2.23;2.07;;;;;;;18.55;49.66;96775.81;5072719;28;20436;-78
2022/06/02 09:20:18;;;;;;;2.50;1.27;;;;;;;19.01;51.28;96746.84;5073022;28;20428;-78
2022/06/02 09:23:16;;;;;;;3.33;2.03;;;;;;;18.95;48.72;96788.50;5070471;28;20546;-78
2022/06/02 09:25:54;;;;;;;1.47;1.33;;;;;;;18.49;49.46;96786.09;5081828;28;20428;-77
2022/06/02 09:28:38;;;;;;;2.00;1.47;;;;;;;18.37;48.70;96791.72;5067620;28;20471;-77
2022/06/02 09:31:21;;;;;;;1.30;1.20;;;;;;;19.11;49.24;96782.91;5078955;28;20466;-78
2022/06/02 09:34:25;;;;;;;2.13;1.30;;;;;;;18.63;48.24;96808.84;5080459;28;20503;-77
2022/06/02 09:37:30;;;;;;;1.50;1.40;;;;;;;19.34;49.51;96796.88;5072201;28;20532;-77
2022/06/02 09:40:00;;;;;;;1.43;1.23;;;;;;;19.05;49.21;96793.19;5082968;28;20869;-77
2022/06/02 09:42:34;;;;;;;6.47;1.60;;;;;;;19.33;51.35;96803.38;5088679;28;20459;-77
2022/06/02 09:45:33;;;;;;;1.60;1.50;;;;;;;19.95;50.96;96806.13;5064237;28;20421;-77
2022/06/02 09:48:47;;;;;;;2.00;1.83;;;;;;;19.91;47.89;96804.59;5061516;28;20534;-78
2022/06/02 09:51:32;;;;;;;2.07;1.97;;;;;;;20.05;48.61;96802.75;5062908;28;20417;-77
2022/06/02 09:54:15;;;;;;;2.20;1.63;;;;;;;19.44;50.22;96768.59;5077534;28;21322;-77
2022/06/02 10:00:30;;;;;;;4.07;1.87;;;;;;;19.17;51.02;96803.66;5037621;28;20448;-77
2022/06/02 10:03:25;;;;;;;1.40;1.30;;;;;;;18.93;51.02;96798.06;5072189;28;20570;-77
2022/06/02 10:06:20;;;;;;;1.87;1.30;;;;;;;19.38;51.49;96803.06;5079741;28;20531;-77
2022/06/02 10:09:15;;;;;;;3.40;1.70;;;;;;;19.48;48.54;96796.22;5065978;28;20508;-78
2022/06/02 10:15:26;;;;;;;6.90;1.57;;;;;;;20.60;48.23;96807.22;5078483;28;20469;-78
2022/06/02 10:18:11;;;;;;;1.43;1.33;;;;;;;19.66;49.21;96764.97;5062534;28;20532;-77
2022/06/02 10:20:53;;;;;;;4.67;1.63;;;;;;;19.72;49.59;96802.94;5080524;28;20975;-78
2022/06/02 10:23:29;;;;;;;1.73;1.40;;;;;;;19.72;47.14;96806.38;5060087;28;20531;-78
2022/06/02 10:26:14;;;;;;;2.30;1.40;;;;;;;20.33;43.57;96817.47;5071363;28;20460;-77
2022/06/02 10:29:08;;;;;;;1.50;1.20;;;;;;;19.91;45.46;96805.38;5073657;28;20859;-78
2022/06/02 10:32:05;;;;;;;2.40;1.50;;;;;;;19.58;46.48;96794.78;5071759;28;20450;-78
2022/06/02 10:35:03;;;;;;;1.40;1.30;;;;;;;19.66;46.26;96809.81;5086426;28;20514;-77
2022/06/02 10:37:58;;;;;;;1.50;1.40;;;;;;;20.14;47.28;96804.31;5086157;28;20472;-77
2022/06/02 10:40:46;;;;;;;2.03;1.40;;;;;;;20.49;45.29;96798.34;5074023;28;20548;-77
2022/06/02 10:43:29;;;;;;;1.30;1.20;;;;;;;20.84;45.12;96786.94;5074275;28;20987;-77
2022/06/02 10:45:59;;;;;;;2.13;1.60;;;;;;;20.66;44.24;96801.09;5070849;28;20421;-78
2022/06/02 10:49:03;;;;;;;1.40;1.27;;;;;;;20.69;43.79;96802.22;5074429;28;20467;-78
2022/06/02 10:52:04;;;;;;;1.83;1.43;;;;;;;20.70;44.22;96803.00;5083582;28;20528;-77
2022/06/02 10:55:00;;;;;;;3.97;1.30;;;;;;;20.31;45.98;96800.94;5083739;28;20555;-77
2022/06/02 10:57:52;;;;;;;2.27;1.10;;;;;;;21.12;43.87;96810.41;5101434;28;20515;-77
2022/06/02 11:00:57;;;;;;;2.50;1.33;;;;;;;21.09;43.45;96808.44;5093635;28;20460;-78
2022/06/02 11:03:41;;;;;;;1.63;1.53;;;;;;;20.58;46.05;96798.78;5011295;28;20570;-77
2022/06/02 11:06:46;;;;;;;2.97;1.30;;;;;;;20.43;46.59;96794.47;5079901;28;20458;-79
2022/06/02 11:09:32;;;;;;;3.33;1.40;;;;;;;20.36;46.49;96800.56;5072688;28;20993;-77
2022/06/02 11:12:01;;;;;;;2.37;1.43;;;;;;;20.82;44.55;96806.09;5071512;28;20490;-78
2022/06/02 11:14:43;;;;;;;1.40;1.30;;;;;;;21.37;44.34;96803.13;5085234;28;20471;-77
2022/06/02 11:17:28;;;;;;;2.93;1.37;;;;;;;21.59;43.64;96806.56;5071442;28;20471;-78
2022/06/02 11:20:01;;;;;;;2.17;1.30;;;;;;;20.86;46.66;96804.22;5084196;28;20487;-78
2022/06/02 11:22:52;;;;;;;1.40;1.30;;;;;;;20.73;46.45;96784.22;5086980;28;20539;-77
2022/06/02 11:26:25;;;;;;;4.70;1.70;;;;;;;20.48;47.47;96791.44;5080372;28;20956;-77
2022/06/02 11:29:29;;;;;;;1.53;1.43;;;;;;;19.66;46.86;96794.47;5092574;28;20459;-78
2022/06/02 11:32:14;;;;;;;1.57;1.47;;;;;;;20.42;45.55;96788.34;5079879;28;20883;-77
2022/06/02 11:35:06;;;;;;;2.10;1.27;;;;;;;20.37;45.85;96796.75;5081980;28;20546;-78
2022/06/02 11:38:03;;;;;;;2.40;1.70;;;;;;;20.45;45.57;96790.28;5077520;28;20865;-78
2022/06/02 11:40:54;;;;;;;1.57;1.30;;;;;;;20.22;45.72;96793.22;5075393;28;20433;-77
2022/06/02 11:43:34;;;;;;;2.07;1.83;;;;;;;20.10;46.64;96728.34;5070708;28;20511;-77
2022/06/02 11:46:35;;;;;;;1.30;1.20;;;;;;;20.10;45.69;96788.19;5070270;28;20436;-77
2022/06/02 11:49:27;;;;;;;2.70;1.60;;;;;;;20.59;44.04;96795.69;5074790;28;20492;-77
2022/06/02 11:52:09;;;;;;;1.50;1.40;;;;;;;20.98;44.08;96803.09;5077045;28;20453;-77
2022/06/02 11:55:09;;;;;;;1.40;1.20;;;;;;;21.52;43.16;96801.97;5094397;28;20459;-78
2022/06/02 11:58:06;;;;;;;1.30;1.20;;;;;;;21.18;45.87;96787.34;5068884;28;20519;-77
2022/06/02 12:01:12;;;;;;;1.80;1.20;;;;;;;20.96;42.68;96802.66;5092714;28;20437;-77
2022/06/02 12:04:13;;;;;;;1.30;1.20;;;;;;;21.80;43.45;96793.09;5045160;28;20467;-78
2022/06/02 12:06:58;;;;;;;1.40;1.10;;;;;;;21.60;41.58;96793.88;5079647;28;20450;-78
2022/06/02 12:09:43;;;;;;;2.30;1.30;;;;;;;22.10;42.16;96805.34;5065895;28;21023;-78
2022/06/02 12:12:28;;;;;;;1.90;1.57;;;;;;;22.47;39.67;96804.81;5073824;28;20503;-78
2022/06/02 12:15:22;;;;;;;1.40;1.20;;;;;;;22.48;41.22;96787.50;5073828;28;20564;-78
2022/06/02 12:18:19;;;;;;;1.33;1.10;;;;;;;22.66;43.44;96787.41;5058292;28;20460;-77
2022/06/02 12:21:13;;;;;;;4.00;1.30;;;;;;;21.88;40.63;96801.13;5061938;28;20468;-78
2022/06/02 12:24:26;;;;;;;2.00;1.43;;;;;;;21.63;40.20;96796.56;5055262;28;20458;-78
2022/06/02 12:27:09;;;;;;;3.20;1.37;;;;;;;22.18;40.56;96779.16;5046114;28;20512;-78
2022/06/02 12:30:04;;;;;;;1.37;1.27;;;;;;;22.66;40.85;96801.63;5057310;28;20424;-78
2022/06/02 12:32:57;;;;;;;2.07;1.23;;;;;;;23.24;39.92;96797.47;5076893;28;20474;-78
2022/06/02 12:35:43;;;;;;;3.00;1.47;;;;;;;23.27;38.66;96801.28;5081564;28;20513;-77
2022/06/02 12:38:32;;;;;;;1.67;1.07;;;;;;;23.62;39.68;96797.53;5078531;28;20528;-78
2022/06/02 12:41:15;;;;;;;1.50;1.40;;;;;;;23.43;38.23;96742.16;5078902;28;20843;-78
2022/06/02 12:44:09;;;;;;;3.13;1.43;;;;;;;23.16;37.19;96797.91;5082103;28;20487;-78
2022/06/02 12:46:47;;;;;;;2.50;1.63;;;;;;;23.19;38.44;96797.09;5085260;28;20436;-78
2022/06/02 12:49:54;;;;;;;6.87;1.77;;;;;;;23.87;37.49;96800.75;5043898;28;20439;-77
2022/06/02 12:52:36;;;;;;;2.23;1.13;;;;;;;23.81;38.23;96793.50;5078400;28;20491;-78
2022/06/02 12:55:55;;;;;;;1.30;1.20;;;;;;;23.16;35.91;96789.81;5079657;28;20906;-78
2022/06/02 12:58:41;;;;;;;1.20;1.10;;;;;;;22.86;36.72;96788.47;5089095;28;20462;-78
2022/06/02 13:01:30;;;;;;;4.73;1.60;;;;;;;23.02;36.95;96801.47;5083849;28;20480;-78
2022/06/02 13:04:20;;;;;;;1.00;0.90;;;;;;;21.95;37.93;96766.88;5085828;28;20457;-78
2022/06/02 13:06:50;;;;;;;2.37;1.10;;;;;;;22.06;37.13;96788.44;5076521;28;20434;-78
2022/06/02 13:09:32;;;;;;;3.00;1.00;;;;;;;22.68;36.78;96788.53;5061825;28;20452;-78
2022/06/02 13:12:18;;;;;;;1.17;1.07;;;;;;;22.61;36.94;96758.16;5087661;28;20531;-78
2022/06/02 13:15:05;;;;;;;1.77;1.30;;;;;;;21.68;36.69;96758.50;5072626;28;21012;-77
2022/06/02 13:17:51;;;;;;;3.63;1.00;;;;;;;22.79;36.78;96787.69;5084328;28;20428;-78
2022/06/02 13:20:32;;;;;;;7.60;1.53;;;;;;;23.87;36.33;96783.78;5052453;28;20424;-77